Time;durP1;ratioP1;P1;durP2;ratioP2;P2;SDS_P1;SDS_P2;PMS_P1;PMS_P2;Temp;Humidity;BMP_temperature;BMP_pressure;BME280_temperature;BME280_humidity;BME280_pressure;Samples;Min_cycle;Max_cycle;Signal;HPM_P1;HPM_P2
2022/07/28 00:01:53;;;;;;;3.70;1.48;;;;;;;17.41;55.71;98675.72;5088848;28;20563;-75
2022/07/28 00:04:18;;;;;;;4.10;1.80;;;;;;;17.41;55.75;98678.47;5088953;28;20028;-75
2022/07/28 00:06:44;;;;;;;5.18;1.75;;;;;;;17.40;55.81;98669.38;5088382;28;20028;-75
2022/07/28 00:09:09;;;;;;;3.13;1.40;;;;;;;17.41;55.90;98678.47;5087708;28;20074;-75
2022/07/28 00:11:35;;;;;;;5.50;1.67;;;;;;;17.39;55.61;98673.28;5087643;28;20032;-74
2022/07/28 00:14:00;;;;;;;3.72;1.67;;;;;;;17.39;55.49;98675.22;5089056;28;20031;-75
2022/07/28 00:16:26;;;;;;;6.10;1.70;;;;;;;17.40;55.84;98674.09;5070440;28;20036;-75
2022/07/28 00:18:51;;;;;;;4.00;1.60;;;;;;;17.43;55.72;98670.66;5070683;28;20115;-75
2022/07/28 00:21:16;;;;;;;3.40;1.80;;;;;;;17.42;55.75;98666.25;5088798;28;20044;-74
2022/07/28 00:23:42;;;;;;;3.80;1.65;;;;;;;17.40;55.61;98672.16;5089254;28;20027;-75
2022/07/28 00:26:08;;;;;;;6.53;1.73;;;;;;;17.39;55.70;98670.53;5089058;28;20394;-75
2022/07/28 00:28:35;;;;;;;4.85;2.03;;;;;;;17.36;55.68;98659.28;5088721;28;20020;-75
2022/07/28 00:31:00;;;;;;;2.97;2.00;;;;;;;17.35;56.06;98668.75;5089355;28;20434;-75
2022/07/28 00:33:26;;;;;;;5.15;2.05;;;;;;;17.31;56.08;98662.28;5088594;28;20016;-74
2022/07/28 00:35:51;;;;;;;4.43;1.80;;;;;;;17.30;56.07;98658.66;5089371;28;20016;-76
2022/07/28 00:38:17;;;;;;;3.92;1.70;;;;;;;17.31;55.97;98663.06;5088415;28;20111;-75
2022/07/28 00:43:26;;;;;;;3.22;1.70;;;;;;;17.23;56.28;98659.22;5088408;28;20446;-74
2022/07/28 00:45:52;;;;;;;3.67;1.70;;;;;;;17.19;56.09;98655.47;5088348;28;20024;-75
2022/07/28 00:48:17;;;;;;;3.92;1.60;;;;;;;17.20;56.26;98661.81;5088663;28;20090;-75
2022/07/28 00:50:43;;;;;;;5.30;1.92;;;;;;;17.23;55.93;98659.22;5088222;28;20035;-74
2022/07/28 00:53:09;;;;;;;3.08;1.52;;;;;;;17.21;55.97;98658.72;5087524;28;20016;-74
2022/07/28 00:55:36;;;;;;;3.05;1.50;;;;;;;17.22;56.08;98660.34;5070140;28;20412;-74
2022/07/28 00:58:02;;;;;;;3.00;1.60;;;;;;;17.23;56.22;98661.97;5088298;28;20020;-74
2022/07/28 01:00:28;;;;;;;4.70;1.50;;;;;;;17.23;56.25;98659.22;5088341;28;20350;-74
2022/07/28 01:02:53;;;;;;;4.90;1.67;;;;;;;17.21;55.89;98664.28;5088070;28;20024;-75
2022/07/28 01:05:18;;;;;;;5.72;1.80;;;;;;;17.22;55.90;98665.91;5088647;28;20024;-74
2022/07/28 01:08:34;;;;;;;4.60;1.67;;;;;;;17.22;56.00;98665.91;5087403;28;20031;-74
2022/07/28 01:11:24;;;;;;;3.10;1.58;;;;;;;17.17;56.11;98666.09;5014855;28;20037;-75
2022/07/28 01:14:22;;;;;;;5.82;1.90;;;;;;;17.17;56.14;98674.41;5087971;28;20531;-74
2022/07/28 01:17:35;;;;;;;3.38;1.60;;;;;;;17.16;56.30;98671.94;5087804;28;20107;-74
2022/07/28 01:20:08;;;;;;;3.55;1.58;;;;;;;17.16;56.27;98667.25;4984271;28;20109;-75
2022/07/28 01:22:44;;;;;;;5.35;1.42;;;;;;;17.16;56.61;98677.50;5080237;28;20059;-74
2022/07/28 01:25:22;;;;;;;4.40;1.95;;;;;;;17.12;56.50;98669.06;5090527;28;20039;-74
2022/07/28 01:27:47;;;;;;;2.17;1.60;;;;;;;17.13;56.72;98667.09;5091114;28;20024;-74
2022/07/28 01:30:21;;;;;;;3.20;1.80;;;;;;;17.11;56.75;98667.44;5092131;28;20039;-74
2022/07/28 01:32:56;;;;;;;2.22;1.40;;;;;;;17.10;56.46;98674.13;5091820;28;20058;-74
2022/07/28 01:35:31;;;;;;;2.92;1.70;;;;;;;17.09;56.17;98675.25;5092089;28;20495;-74
2022/07/28 01:38:03;;;;;;;5.70;1.67;;;;;;;17.11;56.19;98673.78;5091820;28;20398;-74
2022/07/28 01:40:32;;;;;;;4.32;1.80;;;;;;;17.15;56.48;98673.09;5091900;28;20027;-74
2022/07/28 01:43:00;;;;;;;2.60;1.70;;;;;;;17.15;56.10;98671.16;5091595;28;20107;-73
2022/07/28 01:45:27;;;;;;;4.00;1.80;;;;;;;17.16;56.48;98678.31;5092407;28;21039;-73
2022/07/28 01:47:55;;;;;;;3.38;1.50;;;;;;;17.16;56.24;98683.03;5090863;28;20024;-74
2022/07/28 01:50:25;;;;;;;4.63;1.70;;;;;;;17.15;56.32;98685.00;5092436;28;20024;-73
2022/07/28 01:52:51;;;;;;;2.80;1.63;;;;;;;17.17;56.52;98681.88;5090393;28;20028;-73
2022/07/28 01:55:19;;;;;;;5.15;1.77;;;;;;;17.17;56.34;98692.97;5091490;28;20527;-73
2022/07/28 01:57:46;;;;;;;3.22;1.60;;;;;;;17.16;56.51;98694.13;5092486;28;20035;-74
2022/07/28 02:00:13;;;;;;;2.30;1.45;;;;;;;17.16;56.51;98697.72;5089924;28;20031;-74
2022/07/28 02:02:41;;;;;;;6.03;1.70;;;;;;;17.14;56.06;98694.47;5092806;28;20442;-75
2022/07/28 02:05:09;;;;;;;4.50;1.70;;;;;;;17.09;56.25;98695.50;5092144;28;20039;-74
2022/07/28 02:07:36;;;;;;;4.90;1.80;;;;;;;17.09;56.28;98709.34;5092604;28;20064;-74
2022/07/28 02:10:03;;;;;;;4.88;1.88;;;;;;;17.09;56.49;98697.44;5092586;28;20097;-74
2022/07/28 02:12:31;;;;;;;3.65;1.85;;;;;;;17.09;56.51;98700.19;5074342;28;20039;-73
2022/07/28 02:14:58;;;;;;;5.75;2.58;;;;;;;17.07;56.77;98699.72;5092314;28;20016;-74
2022/07/28 02:17:28;;;;;;;4.53;2.45;;;;;;;17.01;56.57;98703.81;5092550;28;20538;-74
2022/07/28 02:19:55;;;;;;;3.55;1.63;;;;;;;16.95;57.07;98700.41;5092932;28;20024;-74
2022/07/28 02:22:22;;;;;;;5.00;2.40;;;;;;;16.90;57.11;98692.28;5091892;28;20040;-74
2022/07/28 02:24:48;;;;;;;4.70;1.85;;;;;;;16.86;57.05;98688.53;5091254;28;20357;-76
2022/07/28 02:27:32;;;;;;;3.40;1.70;;;;;;;16.83;57.08;98695.56;5090733;28;20025;-76
2022/07/28 02:30:11;;;;;;;6.63;2.03;;;;;;;16.78;56.90;98704.06;5092788;28;20433;-75
2022/07/28 02:32:37;;;;;;;;;;;;;;;16.76;57.00;98706.34;5093499;28;20043;-75
2022/07/28 02:35:10;;;;;;;3.75;1.90;;;;;;;16.73;56.72;98704.25;5092979;28;19934;-73
2022/07/28 02:37:39;;;;;;;5.88;2.03;;;;;;;16.71;57.04;98701.78;5091977;28;20122;-82
2022/07/28 02:40:08;;;;;;;4.03;2.08;;;;;;;16.68;56.75;98705.25;5091745;28;20088;-76
2022/07/28 02:42:35;;;;;;;4.15;2.10;;;;;;;16.70;57.01;98707.66;5090154;28;20099;-75
2022/07/28 02:45:05;;;;;;;4.65;2.00;;;;;;;16.70;56.97;98696.59;5093081;28;20024;-76
2022/07/28 02:47:37;;;;;;;6.50;2.00;;;;;;;16.67;57.17;98701.66;5092750;28;20609;-75
2022/07/28 02:50:04;;;;;;;4.18;1.80;;;;;;;16.68;57.27;98708.00;5093064;28;20024;-76
2022/07/28 02:52:32;;;;;;;4.47;1.70;;;;;;;16.66;57.03;98710.31;5092298;28;20362;-75
2022/07/28 02:54:58;;;;;;;4.65;2.00;;;;;;;16.63;57.31;98714.53;5092832;28;20028;-75
2022/07/28 02:57:25;;;;;;;5.20;1.98;;;;;;;16.62;57.65;98710.13;5092634;28;20062;-76
2022/07/28 02:59:52;;;;;;;4.30;1.73;;;;;;;16.58;57.13;98708.38;5092833;28;20020;-76
2022/07/28 03:02:20;;;;;;;4.15;1.88;;;;;;;16.59;57.64;98716.34;5074315;28;20115;-76
2022/07/28 03:04:57;;;;;;;5.35;1.95;;;;;;;16.59;57.42;98715.53;5092472;28;20020;-76
2022/07/28 03:07:23;;;;;;;5.80;2.08;;;;;;;16.59;57.31;98715.53;5092457;28;20173;-75
2022/07/28 03:09:49;;;;;;;6.07;1.98;;;;;;;16.57;57.15;98720.59;5092738;28;20039;-75
2022/07/28 03:12:14;;;;;;;3.65;1.88;;;;;;;16.55;57.51;98731.97;5090262;28;20028;-75
2022/07/28 03:14:40;;;;;;;3.58;1.98;;;;;;;16.54;57.76;98733.13;5090420;28;20484;-75
2022/07/28 03:17:06;;;;;;;3.83;1.95;;;;;;;16.50;57.70;98729.41;5090254;28;20107;-75
2022/07/28 03:19:32;;;;;;;4.07;2.20;;;;;;;16.50;57.49;98734.94;5090952;28;20103;-75
2022/07/28 03:21:57;;;;;;;4.70;2.10;;;;;;;16.49;57.65;98738.84;5090094;28;20048;-76
2022/07/28 03:24:26;;;;;;;4.20;2.38;;;;;;;16.47;57.78;98741.13;5090279;28;20043;-76
2022/07/28 03:27:03;;;;;;;5.10;2.28;;;;;;;16.42;57.65;98755.94;5091491;28;20053;-75
2022/07/28 03:29:31;;;;;;;6.70;2.47;;;;;;;16.40;58.13;98755.47;5092422;28;20038;-76
2022/07/28 03:31:58;;;;;;;8.80;5.97;;;;;;;16.36;58.21;98755.31;5092024;28;20032;-76
2022/07/28 03:34:24;;;;;;;7.47;4.90;;;;;;;16.38;57.92;98757.72;5092083;28;20389;-75
2022/07/28 03:36:55;;;;;;;7.30;3.03;;;;;;;16.35;57.85;98759.22;5091679;28;20032;-76
2022/07/28 03:39:24;;;;;;;6.70;2.45;;;;;;;16.36;58.00;98758.06;5090481;28;20016;-76
2022/07/28 03:41:51;;;;;;;6.70;2.00;;;;;;;16.38;58.39;98754.97;5089884;28;20453;-76
2022/07/28 03:44:17;;;;;;;5.05;2.30;;;;;;;16.38;58.27;98752.19;5091140;28;20031;-76
2022/07/28 03:46:44;;;;;;;3.38;2.00;;;;;;;16.36;57.87;98751.72;5090644;28;20028;-76
2022/07/28 03:49:09;;;;;;;5.13;2.33;;;;;;;16.39;58.26;98750.25;5090128;28;20515;-77
2022/07/28 03:51:34;;;;;;;4.90;2.40;;;;;;;16.43;58.59;98767.84;5090663;28;20149;-76
2022/07/28 03:54:01;;;;;;;5.40;2.30;;;;;;;16.47;58.67;98768.81;5090858;28;20031;-75
2022/07/28 03:56:27;;;;;;;4.70;2.35;;;;;;;16.50;58.64;98768.16;5091693;28;20024;-75
2022/07/28 03:58:52;;;;;;;7.25;3.00;;;;;;;16.52;58.78;98776.94;5087521;28;20047;-76
2022/07/28 04:01:17;;;;;;;6.53;2.90;;;;;;;16.55;58.52;98770.72;5087723;28;20487;-76
2022/07/28 04:03:43;;;;;;;6.97;3.33;;;;;;;16.62;58.63;98770.25;5091029;28;20028;-75
2022/07/28 04:06:09;;;;;;;4.40;2.78;;;;;;;16.70;58.69;98768.59;5091039;28;20053;-75
2022/07/28 04:08:35;;;;;;;7.70;2.80;;;;;;;16.72;58.18;98774.63;5091035;28;20020;-75
2022/07/28 04:11:00;;;;;;;6.60;2.45;;;;;;;16.76;58.32;98770.84;5091083;28;20020;-75
2022/07/28 04:13:25;;;;;;;6.78;2.30;;;;;;;16.79;58.19;98767.41;5088332;28;20059;-75
2022/07/28 04:15:51;;;;;;;5.18;2.30;;;;;;;16.83;58.63;98764.81;5090841;28;20099;-75
2022/07/28 04:18:17;;;;;;;4.95;2.38;;;;;;;16.89;58.59;98774.59;5090719;28;20016;-76
2022/07/28 04:20:43;;;;;;;4.80;2.45;;;;;;;16.90;58.12;98775.38;5090002;28;20119;-76
2022/07/28 04:23:08;;;;;;;5.72;2.25;;;;;;;16.92;58.68;98767.56;5089864;28;20024;-75
2022/07/28 04:25:34;;;;;;;6.32;2.70;;;;;;;16.91;58.55;98768.69;5073128;28;20024;-76
2022/07/28 04:28:01;;;;;;;4.13;2.40;;;;;;;16.90;58.63;98767.06;5091213;28;20031;-75
2022/07/28 04:30:27;;;;;;;4.80;2.35;;;;;;;16.87;58.40;98771.34;5091054;28;20481;-76
2022/07/28 04:32:55;;;;;;;5.90;2.30;;;;;;;16.82;58.16;98771.50;5090507;28;20107;-75
2022/07/28 04:35:26;;;;;;;7.22;1.95;;;;;;;16.78;58.48;98760.25;5072659;28;20028;-76
2022/07/28 04:37:54;;;;;;;6.00;2.30;;;;;;;16.76;58.17;98767.28;5090753;28;20020;-75
2022/07/28 04:40:20;;;;;;;5.65;2.10;;;;;;;16.75;57.79;98768.44;5091146;28;20026;-75
2022/07/28 04:42:46;;;;;;;5.65;2.30;;;;;;;16.73;58.20;98763.19;5090219;28;20111;-76
2022/07/28 04:45:11;;;;;;;6.80;2.28;;;;;;;16.71;58.31;98761.91;5091278;28;20107;-75
2022/07/28 04:47:37;;;;;;;4.05;2.67;;;;;;;16.66;58.62;98765.69;5090781;28;20383;-76
2022/07/28 04:50:04;;;;;;;6.93;2.53;;;;;;;16.64;58.13;98774.31;5090786;28;20490;-75
2022/07/28 04:52:29;;;;;;;5.60;2.47;;;;;;;16.62;58.11;98771.06;5090497;28;20047;-75
2022/07/28 04:54:55;;;;;;;5.82;2.30;;;;;;;16.61;58.45;98772.19;5090579;28;20112;-75
2022/07/28 04:57:21;;;;;;;7.00;2.53;;;;;;;16.62;58.30;98776.59;5090627;28;20032;-75
2022/07/28 04:59:47;;;;;;;5.53;2.30;;;;;;;16.63;58.41;98771.88;5090667;28;20047;-76
2022/07/28 05:02:12;;;;;;;4.53;2.40;;;;;;;16.62;57.95;98771.06;5072131;28;20028;-75
2022/07/28 05:04:38;;;;;;;6.25;2.33;;;;;;;16.62;58.36;98773.81;5090391;28;20024;-75
2022/07/28 05:07:04;;;;;;;5.55;1.95;;;;;;;16.64;57.84;98784.59;5090168;28;20034;-75
2022/07/28 05:09:31;;;;;;;4.60;2.00;;;;;;;16.63;58.05;98780.19;5090744;28;20028;-76
2022/07/28 05:11:57;;;;;;;3.50;1.90;;;;;;;16.64;57.66;98779.03;5090689;28;20077;-75
2022/07/28 05:14:22;;;;;;;7.78;2.65;;;;;;;16.65;57.85;98787.00;5072537;28;20792;-75
2022/07/28 05:16:47;;;;;;;4.75;2.33;;;;;;;16.69;57.17;98789.13;5090669;28;20028;-75
2022/07/28 05:19:13;;;;;;;4.18;2.13;;;;;;;16.71;57.16;98789.59;5090470;28;20077;-75
2022/07/28 05:21:38;;;;;;;8.40;2.70;;;;;;;16.73;57.30;98790.91;5090431;28;20076;-75
2022/07/28 05:24:04;;;;;;;6.72;2.20;;;;;;;16.76;57.23;98784.69;5090306;28;20035;-75
2022/07/28 05:26:31;;;;;;;4.75;2.08;;;;;;;16.81;57.04;98795.59;5087014;28;20031;-75
2022/07/28 05:28:56;;;;;;;5.57;2.20;;;;;;;16.87;57.01;98796.25;5090522;28;20394;-75
2022/07/28 05:31:22;;;;;;;6.50;2.10;;;;;;;16.88;56.89;98797.88;5090403;28;20024;-76
2022/07/28 05:33:48;;;;;;;4.32;1.83;;;;;;;16.92;56.27;98790.53;5090275;28;20020;-76
2022/07/28 05:36:13;;;;;;;2.78;2.00;;;;;;;16.99;56.67;98801.16;5090499;28;20052;-75
2022/07/28 05:38:39;;;;;;;6.47;2.10;;;;;;;17.07;56.26;98799.47;5089739;28;20024;-75
2022/07/28 05:41:05;;;;;;;4.88;1.98;;;;;;;17.14;56.27;98794.25;5090418;28;20027;-75
2022/07/28 05:43:31;;;;;;;4.32;1.92;;;;;;;17.24;55.94;98795.81;5090341;28;20082;-75
2022/07/28 05:45:56;;;;;;;4.00;1.80;;;;;;;17.32;55.92;98792.19;5090212;28;20024;-76
2022/07/28 05:48:22;;;;;;;4.25;1.95;;;;;;;17.43;55.58;98795.41;5089980;28;20682;-77
2022/07/28 05:50:48;;;;;;;4.32;1.80;;;;;;;17.54;54.93;98796.66;5071961;28;20032;-76
2022/07/28 05:53:14;;;;;;;5.45;2.10;;;;;;;17.65;54.91;98796.28;5089474;28;20361;-76
2022/07/28 05:55:39;;;;;;;5.63;2.30;;;;;;;17.82;54.81;98798.94;5090042;28;20111;-76
2022/07/28 05:58:05;;;;;;;5.40;2.20;;;;;;;17.98;54.33;98796.38;5089921;28;20391;-76
2022/07/28 06:00:33;;;;;;;4.35;2.10;;;;;;;18.14;54.12;98801.34;5090072;28;20487;-75
2022/07/28 06:03:01;;;;;;;4.78;2.13;;;;;;;18.30;53.79;98796.81;5090017;28;20028;-76
2022/07/28 06:05:27;;;;;;;6.30;2.35;;;;;;;18.45;53.82;98792.59;5071649;28;20467;-76
2022/07/28 06:07:53;;;;;;;4.88;2.47;;;;;;;18.59;53.48;98797.03;5089674;28;20028;-76
2022/07/28 06:10:21;;;;;;;3.63;2.05;;;;;;;18.68;53.04;98796.97;5093453;28;20024;-75
2022/07/28 06:12:52;;;;;;;5.20;2.80;;;;;;;18.79;52.78;98800.91;5091761;28;20107;-76
2022/07/28 06:15:25;;;;;;;3.33;2.22;;;;;;;18.88;52.78;98793.31;5090296;28;20020;-76
2022/07/28 06:17:54;;;;;;;5.45;2.70;;;;;;;18.97;52.68;98800.78;5072998;28;20024;-76
2022/07/28 06:20:21;;;;;;;5.35;3.00;;;;;;;19.04;52.52;98796.25;5075731;28;20037;-76
2022/07/28 06:22:52;;;;;;;8.43;2.80;;;;;;;19.06;51.96;98803.44;5092924;28;20060;-77
2022/07/28 06:25:23;;;;;;;10.68;2.90;;;;;;;19.06;51.45;98804.28;5092955;28;20039;-77
2022/07/28 06:27:51;;;;;;;8.80;3.08;;;;;;;19.00;50.36;98805.66;5074391;28;20396;-78
2022/07/28 06:30:18;;;;;;;7.32;2.80;;;;;;;18.93;50.43;98810.91;5092400;28;20537;-77
2022/07/28 06:32:44;;;;;;;5.25;2.85;;;;;;;18.85;49.33;98805.09;5091619;28;20024;-76
2022/07/28 06:35:12;;;;;;;4.07;2.60;;;;;;;18.75;48.92;98808.31;5087552;28;20430;-76
2022/07/28 06:37:38;;;;;;;5.72;2.60;;;;;;;18.69;49.24;98806.94;5090543;28;20085;-76
2022/07/28 06:40:04;;;;;;;5.15;2.40;;;;;;;18.64;49.17;98798.81;5090970;28;20020;-77
2022/07/28 06:42:29;;;;;;;5.40;2.30;;;;;;;18.57;48.69;98800.16;5090884;28;20531;-76
2022/07/28 06:44:54;;;;;;;6.30;2.25;;;;;;;18.57;48.88;98802.13;5090592;28;20032;-77
2022/07/28 06:47:20;;;;;;;4.55;2.40;;;;;;;18.60;48.69;98804.22;5090380;28;20031;-77
2022/07/28 06:49:45;;;;;;;4.20;2.10;;;;;;;18.65;48.90;98808.75;5091294;28;20137;-77
2022/07/28 06:52:11;;;;;;;6.75;2.28;;;;;;;18.70;49.23;98800.22;5089860;28;20028;-78
2022/07/28 06:54:37;;;;;;;4.25;2.47;;;;;;;18.80;49.30;98801.75;5090914;28;20032;-78
2022/07/28 06:57:02;;;;;;;6.43;2.03;;;;;;;18.87;49.11;98805.59;5090516;28;20483;-77
2022/07/28 06:59:28;;;;;;;5.90;2.30;;;;;;;18.95;49.03;98797.50;5091192;28;20063;-77
2022/07/28 07:01:54;;;;;;;5.30;1.60;;;;;;;19.03;48.85;98799.41;5091014;28;20110;-77
2022/07/28 07:04:20;;;;;;;5.25;2.10;;;;;;;19.11;48.85;98803.22;5072984;28;20438;-78
2022/07/28 07:06:46;;;;;;;4.88;2.03;;;;;;;19.15;48.39;98804.16;5089117;28;20063;-76
2022/07/28 07:09:11;;;;;;;4.63;1.90;;;;;;;19.20;48.26;98801.16;5091615;28;20379;-78
2022/07/28 07:11:36;;;;;;;6.78;1.92;;;;;;;19.28;47.65;98802.19;5091202;28;20086;-77
2022/07/28 07:14:02;;;;;;;4.13;1.65;;;;;;;19.33;47.84;98805.59;5091215;28;20544;-80
2022/07/28 07:16:27;;;;;;;5.85;1.98;;;;;;;19.40;47.99;98793.88;5093477;28;20027;-78
2022/07/28 07:18:53;;;;;;;4.57;2.00;;;;;;;19.46;47.15;98795.28;5093485;28;20431;-76
2022/07/28 07:21:19;;;;;;;3.60;1.70;;;;;;;19.52;46.74;98795.84;5089739;28;20126;-77
2022/07/28 07:23:44;;;;;;;4.35;1.80;;;;;;;19.55;46.32;98799.91;5091129;28;20516;-76
2022/07/28 07:26:10;;;;;;;3.90;1.58;;;;;;;19.58;45.99;98786.09;5090081;28;20027;-79
2022/07/28 07:28:37;;;;;;;4.65;1.55;;;;;;;19.64;46.12;98784.72;5090856;28;20028;-78
2022/07/28 07:31:03;;;;;;;4.47;1.65;;;;;;;19.69;46.27;98792.00;5088846;28;20499;-78
2022/07/28 07:33:29;;;;;;;3.17;1.60;;;;;;;19.78;46.29;98795.47;5090900;28;20047;-78
2022/07/28 07:35:55;;;;;;;3.35;1.45;;;;;;;19.85;45.60;98796.88;5090648;28;20633;-77
2022/07/28 07:38:20;;;;;;;6.22;1.67;;;;;;;19.89;45.92;98795.84;5090728;28;20028;-79
2022/07/28 07:40:45;;;;;;;6.18;1.80;;;;;;;19.93;45.93;98788.41;5090893;28;20472;-79
2022/07/28 07:43:11;;;;;;;5.88;2.25;;;;;;;19.96;45.83;98792.47;5090673;28;20035;-78
2022/07/28 07:45:36;;;;;;;3.63;1.90;;;;;;;20.01;46.09;98794.19;5089992;28;20024;-77
2022/07/28 07:48:02;;;;;;;4.45;1.85;;;;;;;20.12;45.59;98803.69;5089781;28;20127;-78
2022/07/28 07:50:28;;;;;;;5.03;1.60;;;;;;;20.20;45.56;98805.50;5090775;28;20468;-78
2022/07/28 07:52:54;;;;;;;5.57;1.95;;;;;;;20.28;45.82;98794.56;5090057;28;20369;-77
2022/07/28 07:55:19;;;;;;;4.18;1.52;;;;;;;20.33;45.57;98794.31;5090259;28;20097;-82
2022/07/28 07:57:45;;;;;;;5.10;1.35;;;;;;;20.44;45.95;98803.81;5072206;28;20085;-77
2022/07/28 08:00:11;;;;;;;3.97;1.50;;;;;;;20.51;45.25;98797.63;5090262;28;20408;-78
2022/07/28 08:02:40;;;;;;;3.08;1.55;;;;;;;20.59;45.62;98801.41;5089731;28;20279;-77
2022/07/28 08:05:07;;;;;;;5.65;1.83;;;;;;;20.65;45.08;98800.00;5090394;28;20028;-79
2022/07/28 08:07:33;;;;;;;4.47;1.48;;;;;;;20.73;45.33;98803.81;5089845;28;20032;-76
2022/07/28 08:09:58;;;;;;;5.03;1.70;;;;;;;20.78;45.05;98807.16;5089291;28;20031;-76
2022/07/28 08:12:23;;;;;;;2.72;1.35;;;;;;;20.84;44.92;98801.34;5089375;28;20028;-75
2022/07/28 08:14:49;;;;;;;4.30;1.60;;;;;;;20.86;44.91;98796.22;5071523;28;20484;-76
2022/07/28 08:17:14;;;;;;;6.38;2.00;;;;;;;20.93;44.77;98804.78;5089391;28;20034;-76
2022/07/28 08:19:40;;;;;;;6.47;1.65;;;;;;;21.00;44.62;98802.16;5086111;28;20036;-73
2022/07/28 08:22:05;;;;;;;4.75;1.60;;;;;;;21.04;44.82;98805.84;5087173;28;20400;-79
2022/07/28 08:24:31;;;;;;;4.32;1.30;;;;;;;21.15;44.30;98791.38;5087886;28;20035;-77
2022/07/28 08:26:56;;;;;;;5.90;1.48;;;;;;;21.19;44.37;98800.66;5089472;28;20027;-76
2022/07/28 08:29:22;;;;;;;3.38;1.58;;;;;;;21.25;43.91;98793.63;5090409;28;20024;-76
2022/07/28 08:31:47;;;;;;;6.80;1.50;;;;;;;21.26;43.79;98796.06;5089367;28;20032;-75
2022/07/28 08:34:13;;;;;;;3.90;1.42;;;;;;;21.27;43.74;98785.72;5089005;28;20028;-72
2022/07/28 08:36:38;;;;;;;5.32;1.70;;;;;;;21.30;43.01;98790.59;5088595;28;20041;-76
2022/07/28 08:39:04;;;;;;;7.15;1.60;;;;;;;21.36;43.21;98780.78;5089834;28;20472;-76
2022/07/28 08:41:39;;;;;;;6.80;1.83;;;;;;;21.41;43.74;98785.25;5089804;28;20054;-76
2022/07/28 08:44:07;;;;;;;3.38;1.42;;;;;;;21.49;43.25;98780.66;5088058;28;20028;-78
2022/07/28 08:46:37;;;;;;;4.70;1.70;;;;;;;21.54;43.45;98791.53;5087696;28;20035;-76
2022/07/28 08:49:09;;;;;;;4.47;2.08;;;;;;;21.55;43.12;98782.00;5088084;28;20032;-79
2022/07/28 08:51:36;;;;;;;7.85;2.72;;;;;;;21.59;42.70;98779.31;5089536;28;20062;-75
2022/07/28 08:54:02;;;;;;;5.55;1.85;;;;;;;21.61;42.88;98776.94;5088704;28;20028;-75
2022/07/28 08:56:28;;;;;;;5.78;1.63;;;;;;;21.68;42.82;98779.94;5087967;28;20032;-77
2022/07/28 08:58:54;;;;;;;5.38;1.80;;;;;;;21.76;42.79;98783.72;5088905;28;20387;-75
2022/07/28 09:01:22;;;;;;;4.15;1.90;;;;;;;21.79;43.12;98777.41;5089038;28;20034;-76
2022/07/28 09:03:49;;;;;;;4.80;2.00;;;;;;;21.85;42.61;98771.16;5087216;28;20039;-75
2022/07/28 09:06:16;;;;;;;6.93;1.65;;;;;;;21.93;42.58;98774.13;5088908;28;20032;-81
2022/07/28 09:08:41;;;;;;;5.22;1.98;;;;;;;22.00;42.88;98769.50;5088724;28;20560;-77
2022/07/28 09:11:07;;;;;;;6.43;1.90;;;;;;;22.10;42.53;98775.69;5088222;28;20139;-77
2022/07/28 09:13:34;;;;;;;5.20;1.67;;;;;;;22.14;42.63;98771.78;5070161;28;20130;-80
2022/07/28 09:16:00;;;;;;;5.53;1.73;;;;;;;22.19;42.28;98773.50;5087228;28;20027;-81
2022/07/28 09:18:25;;;;;;;5.20;1.85;;;;;;;22.19;42.10;98776.28;5088034;28;20028;-77
2022/07/28 09:20:51;;;;;;;5.45;1.95;;;;;;;22.24;42.36;98772.38;5088941;28;20067;-76
2022/07/28 09:23:16;;;;;;;6.25;1.80;;;;;;;22.30;42.22;98768.91;5088105;28;20089;-78
2022/07/28 09:25:42;;;;;;;5.07;1.75;;;;;;;22.36;41.67;98774.22;5071375;28;20025;-78
2022/07/28 09:28:17;;;;;;;3.72;1.33;;;;;;;22.38;41.97;98771.84;5088305;28;20012;-77
2022/07/28 09:30:45;;;;;;;6.72;2.00;;;;;;;22.46;41.80;98773.66;5088290;28;20024;-77
2022/07/28 09:33:18;;;;;;;6.97;1.90;;;;;;;22.52;41.55;98761.00;5068878;28;20115;-76
2022/07/28 09:35:55;;;;;;;5.70;1.80;;;;;;;22.63;41.73;98768.75;5088903;28;20035;-82
2022/07/28 09:38:23;;;;;;;4.32;1.73;;;;;;;22.69;41.54;98767.28;5087792;28;20024;-81
2022/07/28 09:40:56;;;;;;;3.83;1.63;;;;;;;22.67;40.76;98767.66;5089449;28;20024;-79
2022/07/28 09:43:36;;;;;;;8.30;1.73;;;;;;;22.67;40.83;98772.44;5070114;28;20080;-79
2022/07/28 09:46:23;;;;;;;5.50;1.77;;;;;;;22.73;41.22;98774.59;5092835;28;20099;-81
2022/07/28 09:48:48;;;;;;;7.35;2.20;;;;;;;22.84;40.99;98777.56;5088529;28;20044;-79
2022/07/28 09:51:18;;;;;;;5.43;1.70;;;;;;;22.88;41.35;98772.84;5092075;28;20469;-75
2022/07/28 09:53:44;;;;;;;3.65;1.42;;;;;;;22.89;40.08;98762.47;5092847;28;20028;-75
2022/07/28 09:56:12;;;;;;;3.13;1.40;;;;;;;22.87;40.27;98768.44;5091977;28;20096;-75
2022/07/28 09:58:38;;;;;;;4.63;1.95;;;;;;;22.92;40.72;98760.94;5091774;28;20567;-75
2022/07/28 10:01:08;;;;;;;4.85;1.50;;;;;;;22.98;40.65;98762.25;5092065;28;20370;-74
2022/07/28 10:03:35;;;;;;;5.35;1.95;;;;;;;23.08;40.54;98758.00;5092650;28;20035;-77
2022/07/28 10:06:06;;;;;;;5.28;1.90;;;;;;;23.19;40.93;98765.38;5092136;28;20078;-76
2022/07/28 10:08:38;;;;;;;4.47;2.05;;;;;;;23.26;40.46;98750.72;5090522;28;20069;-78
2022/07/28 10:11:04;;;;;;;6.07;2.10;;;;;;;23.31;40.27;98756.00;5091805;28;20484;-82
2022/07/28 10:13:29;;;;;;;3.88;2.20;;;;;;;23.43;40.59;98752.22;5072326;28;20190;-80
2022/07/28 10:16:12;;;;;;;6.28;2.13;;;;;;;23.56;40.67;98750.03;5091570;28;20477;-81
2022/07/28 10:18:41;;;;;;;4.78;2.08;;;;;;;23.72;40.31;98751.81;5090627;28;20111;-78
2022/07/28 10:21:08;;;;;;;;;;;;;;;23.90;40.49;98750.09;5091364;28;20040;-78
2022/07/28 10:23:37;;;;;;;5.20;2.05;;;;;;;24.01;39.96;98738.25;5087471;28;20372;-78
2022/07/28 10:26:08;;;;;;;6.55;1.80;;;;;;;24.12;40.30;98742.00;5091946;28;20463;-79
2022/07/28 10:28:36;;;;;;;3.30;1.80;;;;;;;24.23;40.29;98740.13;5088330;28;20464;-79
2022/07/28 10:31:03;;;;;;;5.15;1.50;;;;;;;24.35;39.99;98738.28;5090547;28;20541;-76
2022/07/28 10:33:31;;;;;;;3.72;1.40;;;;;;;24.50;40.22;98742.84;5091074;28;20105;-74
2022/07/28 10:35:58;;;;;;;6.63;1.50;;;;;;;24.58;39.14;98742.91;5091132;28;20039;-77
2022/07/28 10:38:33;;;;;;;7.50;1.90;;;;;;;24.60;39.22;98732.94;5091303;28;20024;-79
2022/07/28 10:41:02;;;;;;;6.60;2.20;;;;;;;24.64;39.29;98728.19;5089927;28;20024;-80
2022/07/28 10:43:29;;;;;;;3.50;1.48;;;;;;;24.68;39.16;98731.00;5091500;28;20127;-78
2022/07/28 10:45:56;;;;;;;5.57;2.90;;;;;;;24.73;38.83;98730.69;5091646;28;20024;-76
2022/07/28 10:48:22;;;;;;;6.35;1.90;;;;;;;24.79;38.75;98731.97;5090387;28;20019;-78
2022/07/28 10:50:50;;;;;;;5.88;2.10;;;;;;;24.79;38.53;98728.34;5091292;28;20036;-78
2022/07/28 10:53:33;;;;;;;4.82;2.03;;;;;;;24.85;38.54;98740.03;5092033;28;20032;-79
2022/07/28 10:56:16;;;;;;;4.70;2.10;;;;;;;24.82;38.47;98730.38;5090206;28;20122;-79
2022/07/28 10:59:14;;;;;;;3.97;1.63;;;;;;;24.89;37.91;98727.66;5086888;28;20103;-77
2022/07/28 11:01:40;;;;;;;4.97;1.75;;;;;;;25.04;38.11;98717.34;5091368;28;20021;-80
2022/07/28 11:04:06;;;;;;;5.38;1.88;;;;;;;25.18;38.49;98715.88;5090895;28;20118;-80
2022/07/28 11:06:38;;;;;;;4.07;1.88;;;;;;;25.30;38.26;98720.34;5090186;28;20382;-80
2022/07/28 11:09:30;;;;;;;4.05;1.98;;;;;;;25.38;38.42;98722.03;5070662;28;20064;-76
2022/07/28 11:11:57;;;;;;;7.05;2.00;;;;;;;25.51;38.48;98728.94;5085492;28;20075;-79
2022/07/28 11:14:23;;;;;;;4.80;2.15;;;;;;;25.68;37.85;98721.81;5091493;28;20502;-83
2022/07/28 11:16:49;;;;;;;5.10;2.08;;;;;;;25.80;38.16;98729.16;5090004;28;20035;-78
2022/07/28 11:19:17;;;;;;;5.13;2.30;;;;;;;25.88;37.63;98734.81;5091063;28;20027;-77
2022/07/28 11:22:14;;;;;;;7.90;2.30;;;;;;;25.95;37.70;98740.44;5087921;28;20036;-81
2022/07/28 11:25:01;;;;;;;7.28;2.25;;;;;;;26.04;37.67;98734.47;5090084;28;20119;-77
2022/07/28 11:27:41;;;;;;;7.05;2.25;;;;;;;26.11;37.06;98729.69;5090908;28;20035;-80
2022/07/28 11:30:30;;;;;;;6.47;2.22;;;;;;;26.18;36.74;98719.69;5091392;28;20028;-77
2022/07/28 11:32:59;;;;;;;;;;;;;;;26.20;37.09;98720.91;5090526;28;20864;-78
2022/07/28 11:35:29;;;;;;;6.97;2.42;;;;;;;26.17;36.47;98718.09;5090259;28;20341;-78
2022/07/28 11:38:01;;;;;;;6.10;2.35;;;;;;;26.10;36.66;98718.81;5091055;28;20024;-77
2022/07/28 11:40:43;;;;;;;7.90;2.50;;;;;;;26.18;37.09;98719.69;5088713;28;20387;-77
2022/07/28 11:43:21;;;;;;;6.80;2.75;;;;;;;26.30;37.00;98717.34;5089264;28;20480;-80